Latest Weather Observations for Gympie

IDQ60901

Issued at 10:05 am EST Monday 22 September 2014 (issued every 10 minutes, with the page automatically refreshed every 10 minutes)

About weather observations | Map of Brisbane area stations | Latest observations for Brisbane area | Other Formats
Station Details ID: 040093 Name: GYMPIE Lat: -26.18 Lon: 152.64 Height: 64.5 m
Data from the previous 72 hours. | See also: Recent months at Gympie
Date/Time
EST
Tmp

°C
App
Tmp
°C
Dew
Point
°C
Rel
Hum
%
Delta-T

°C
Wind Press
QNH
hPa
Press
MSL
hPa
Rain
since
9 am
mm
Dir
 
Spd
km/h
Gust
km/h
Spd
kts
Gust
kts
22/10:00am 20.9 18.1 11.5 55 5.2 SE 17 32 9 17 1026.4 1026.2 0.0
22/09:30am 20.5 17.4 11.7 57 4.9 SE 19 32 10 17 1026.4 1026.2 0.0
22/09:00am 20.7 19.9 14.1 66 3.8 SE 11 20 6 11 1026.3 1026.1 0.4
22/08:30am 19.1 18.3 13.9 72 3.0 S 11 19 6 10 1026.0 1025.8 0.4
22/08:00am 19.4 19.4 15.1 76 2.5 SSE 9 19 5 10 1025.9 1025.7 0.4
22/07:30am 17.8 17.5 14.3 80 2.0 SSE 9 17 5 9 1025.6 1025.4 0.4
22/07:00am 16.4 16.4 14.1 86 1.3 SSE 7 13 4 7 1025.4 1025.2 0.4
22/06:30am 15.1 14.9 13.5 90 0.9 SSE 7 11 4 6 1024.7 1024.5 0.4
22/06:00am 14.2 14.8 13.2 94 0.6 SSE 2 6 1 3 1024.7 1024.5 0.4
22/05:30am 14.1 13.9 13.1 94 0.6 SE 6 7 3 4 1024.5 1024.3 0.4
22/05:00am 14.3 14.2 13.3 94 0.6 S 6 6 3 3 1024.6 1024.4 0.2
22/04:30am 14.1 13.9 13.1 94 0.6 SE 6 9 3 5 1024.5 1024.3 0.2
22/04:00am 14.4 14.3 13.3 93 0.6 ESE 6 9 3 5 1024.4 1024.2 0.2
22/03:30am 14.0 14.2 13.2 95 0.4 SSE 4 6 2 3 1024.3 1024.1 0.2
22/03:00am 14.2 14.9 13.4 95 0.4 SSE 2 4 1 2 1024.4 1024.2 0.2
22/02:30am 13.9 13.7 13.0 94 0.5 S 6 6 3 3 1024.5 1024.3 0.2
22/02:00am 14.4 14.3 13.3 93 0.6 SSE 6 7 3 4 1024.7 1024.5 0.2
22/01:30am 15.0 14.9 13.2 89 1.0 SSE 6 9 3 5 1025.2 1025.0 0.0
22/01:00am 14.9 14.6 12.8 87 1.2 SSE 6 7 3 4 1025.7 1025.5 0.0
22/12:30am 15.4 15.2 12.9 85 1.4 SE 6 7 3 4 1025.7 1025.5 0.0
22/12:00am 15.7 15.2 12.8 83 1.6 S 7 11 4 6 1025.9 1025.7 0.0
 
Date/Time
EST
Tmp

°C
App
Tmp
°C
Dew
Point
°C
Rel
Hum
%
Delta-T

°C
Wind Press
QNH
hPa
Press
MSL
hPa
Rain
since
9 am
mm
Dir
 
Spd
km/h
Gust
km/h
Spd
kts
Gust
kts
21/11:30pm 15.4 14.9 12.2 81 1.7 S 6 9 3 5 1026.3 1026.1 0.0
21/11:00pm 15.7 16.1 12.6 82 1.7 SSE 2 4 1 2 1026.1 1025.9 0.0
21/10:30pm 15.6 15.7 12.7 83 1.6 SSE 4 6 2 3 1025.8 1025.6 0.0
21/10:00pm 15.8 16.0 12.9 83 1.6 S 4 6 2 3 1026.4 1026.2 0.0
21/09:30pm 15.5 15.6 12.8 84 1.5 S 4 6 2 3 1026.1 1025.9 0.0
21/09:00pm 15.9 15.4 12.6 81 1.8 S 7 11 4 6 1026.0 1025.8 0.0
21/08:30pm 16.3 16.3 12.5 78 2.1 SSE 4 6 2 3 1025.9 1025.7 0.0
21/08:00pm 16.6 16.1 12.2 75 2.4 SSE 6 7 3 4 1025.8 1025.6 0.0
21/07:30pm 17.0 16.5 12.5 75 2.5 SSE 7 11 4 6 1025.6 1025.4 0.0
21/07:00pm 17.0 16.5 12.5 75 2.5 SSE 7 15 4 8 1025.2 1025.0 0.0
21/06:30pm 17.3 16.7 12.4 73 2.7 SSE 7 11 4 6 1025.1 1024.9 0.0
21/06:00pm 17.9 17.4 12.8 72 2.8 SSE 7 11 4 6 1024.6 1024.4 0.0
21/05:30pm 18.4 17.8 13.5 73 2.8 SE 9 15 5 8 1023.9 1023.7 0.0
21/05:00pm 18.8 17.4 13.4 71 3.1 SE 13 20 7 11 1023.9 1023.7 0.0
21/04:30pm 19.0 17.5 13.2 69 3.3 SSE 13 24 7 13 1023.6 1023.4 0.0
21/04:00pm 18.8 18.1 13.2 70 3.2 SSE 9 15 5 8 1023.4 1023.2 0.0
21/03:30pm 19.3 18.0 12.6 65 3.8 SSE 11 22 6 12 1023.4 1023.2 0.0
21/03:00pm 19.5 17.4 12.5 64 3.9 ESE 15 28 8 15 1023.2 1023.0 0.0
21/02:30pm 20.6 18.2 11.5 56 5.0 ESE 15 22 8 12 1022.8 1022.7 0.0
21/02:00pm 21.3 19.0 11.9 55 5.3 ESE 15 26 8 14 1023.1 1022.9 0.0
21/01:30pm 20.8 18.0 11.2 54 5.3 ESE 17 26 9 14 1023.4 1023.2 0.0
21/01:00pm 21.5 19.1 11.5 53 5.6 E 15 32 8 17 1023.4 1023.2 0.0
21/12:30pm 23.3 20.7 10.7 45 7.0 ESE 15 22 8 12 1023.8 1023.6 0.0
21/12:00pm 21.9 19.9 11.6 52 5.7 SE 13 22 7 12 1024.5 1024.3 0.0
21/11:30am 20.6 18.7 11.8 57 4.9 SE 13 24 7 13 1024.6 1024.4 0.0
21/11:00am 20.3 17.9 11.5 57 4.9 SE 15 26 8 14 1025.1 1024.9 0.0
21/10:30am 20.4 18.5 11.9 58 4.7 SSE 13 24 7 13 1025.5 1025.3 0.0
21/10:00am 20.1 17.7 11.3 57 4.8 SSE 15 22 8 12 1025.6 1025.4 0.0
21/09:30am 19.5 18.0 12.0 62 4.2 SSE 11 17 6 9 1025.7 1025.5 0.0
21/09:00am 19.5 19.0 12.8 65 3.8 SSE 7 15 4 8 1025.8 1025.6 0.0
21/08:30am 19.0 17.5 12.0 64 3.9 S 11 19 6 10 1025.8 1025.6 0.0
21/08:00am 18.5 17.4 12.0 66 3.6 SSE 9 15 5 8 1025.4 1025.2 0.0
21/07:30am 17.7 17.5 13.0 74 2.6 SSE 6 9 3 5 1025.1 1024.9 0.0
21/07:00am 15.8 16.2 13.6 87 1.2 SSE 4 6 2 3 1024.8 1024.6 0.0
21/06:30am 15.0 15.2 13.2 89 1.0 SE 4 7 2 4 1024.6 1024.4 0.0
21/06:00am 14.9 16.0 13.4 91 0.8 CALM 0 2 0 1 1024.3 1024.1 0.0
21/05:30am 14.9 15.2 13.4 91 0.8 SSE 4 4 2 2 1024.0 1023.8 0.0
21/05:00am 15.3 16.5 13.8 91 0.8 CALM 0 0 0 0 1023.8 1023.6 0.0
21/04:30am 15.3 16.5 13.7 90 0.9 CALM 0 0 0 0 1023.7 1023.5 0.0
21/04:00am 15.3 15.7 13.8 91 0.8 SE 4 7 2 4 1023.3 1023.1 0.0
21/03:30am 15.6 15.7 13.8 89 1.0 SSE 6 11 3 6 1023.1 1022.9 0.0
21/03:00am 15.6 16.0 13.6 88 1.1 SE 4 6 2 3 1023.2 1023.0 0.0
21/02:30am 15.7 15.7 13.5 87 1.2 S 6 9 3 5 1023.4 1023.2 0.0
21/02:00am 16.0 15.9 13.8 87 1.2 S 7 11 4 6 1023.7 1023.5 0.0
21/01:30am 16.0 17.2 14.9 93 0.6 S 2 6 1 3 1023.7 1023.5 0.0
21/01:00am 16.0 16.3 14.9 93 0.6 SE 7 11 4 6 1023.5 1023.3 0.0
21/12:30am 16.0 16.8 14.7 92 0.7 SSE 4 6 2 3 1023.9 1023.7 0.0
21/12:00am 16.0 17.5 14.7 92 0.7 CALM 0 0 0 0 1024.0 1023.8 0.0
 
Date/Time
EST
Tmp

°C
App
Tmp
°C
Dew
Point
°C
Rel
Hum
%
Delta-T

°C
Wind Press
QNH
hPa
Press
MSL
hPa
Rain
since
9 am
mm
Dir
 
Spd
km/h
Gust
km/h
Spd
kts
Gust
kts
20/11:30pm 15.8 16.9 14.7 93 0.6 SE 2 4 1 2 1024.0 1023.8 0.0
20/11:00pm 15.7 16.4 14.6 93 0.6 SSE 4 7 2 4 1024.0 1023.8 0.0
20/10:30pm 15.9 16.6 14.6 92 0.7 SSE 4 7 2 4 1023.9 1023.7 0.0
20/10:00pm 16.2 16.5 14.6 90 0.9 SSE 6 7 3 4 1023.7 1023.5 0.0
20/09:30pm 16.6 16.8 14.8 89 1.0 SSE 7 13 4 7 1023.5 1023.3 0.0
20/09:00pm 16.6 16.4 14.6 88 1.1 SSE 9 17 5 9 1023.3 1023.1 0.0
20/08:30pm 16.7 17.0 15.1 90 0.9 S 7 13 4 7 1023.3 1023.1 0.0
20/08:00pm 16.5 17.7 15.0 91 0.9 SE 2 7 1 4 1022.6 1022.5 0.0
20/07:30pm 16.6 17.1 15.1 91 0.9 SSE 6 9 3 5 1022.0 1021.9 0.0
20/07:00pm 16.8 17.3 15.0 89 1.0 SSE 6 11 3 6 1021.6 1021.5 0.0
20/06:30pm 17.7 17.5 14.8 83 1.7 SSE 9 13 5 7 1021.1 1021.0 0.0
20/06:00pm 18.4 16.9 14.3 77 2.4 SSE 15 24 8 13 1020.4 1020.3 0.0
20/05:30pm 20.3 20.3 13.5 65 3.9 ESE 6 11 3 6 1019.6 1019.5 0.0
20/05:00pm 20.8 19.7 14.2 66 3.8 E 13 19 7 10 1019.0 1018.9 0.0
20/04:30pm 21.0 20.4 14.6 67 3.8 E 11 19 6 10 1018.5 1018.4 0.0
20/04:00pm 21.1 20.4 14.3 65 4.0 ENE 11 20 6 11 1018.0 1017.9 0.0
20/03:30pm 21.4 19.5 14.1 63 4.3 ESE 17 28 9 15 1017.9 1017.8 0.0
20/03:00pm 22.1 20.4 13.7 59 4.9 E 15 30 8 16 1017.6 1017.5 0.0
20/02:30pm 22.2 20.3 14.1 60 4.7 ESE 17 26 9 14 1017.5 1017.4 0.0
20/02:00pm 23.1 21.1 12.7 52 6.0 ESE 15 24 8 13 1017.4 1017.3 0.0
20/01:30pm 24.1 22.5 12.7 49 6.6 SE 13 19 7 10 1017.3 1017.2 0.0
20/01:00pm 25.4 24.5 10.8 40 8.2 ENE 6 11 3 6 1017.7 1017.6 0.0
20/12:30pm 25.1 24.3 11.6 42 7.7 N 7 15 4 8 1018.2 1018.1 0.0
20/12:00pm 23.6 22.9 11.3 46 6.9 N 6 13 3 7 1018.7 1018.6 0.0
20/11:30am 23.8 23.6 11.8 47 6.8 NE 4 7 2 4 1019.2 1019.1 0.0
20/11:00am 23.4 23.0 12.4 50 6.3 N 6 9 3 5 1019.8 1019.7 0.0
20/10:30am 23.2 21.3 11.9 49 6.4 N 13 20 7 11 1020.1 1020.0 0.0
20/10:00am 22.3 21.0 12.5 53 5.6 N 11 20 6 11 1020.7 1020.6 0.0
20/09:30am 21.2 21.5 13.4 61 4.5 SSE 4 6 2 3 1021.1 1021.0 0.0
20/09:00am 19.3 20.0 13.3 68 3.4 ENE 2 4 1 2 1021.3 1021.2 0.0
20/08:30am 16.6 17.4 12.4 76 2.3 CALM 0 0 0 0 1021.4 1021.3 0.0
20/08:00am 14.7 14.1 11.8 83 1.6 SE 6 7 3 4 1021.3 1021.2 0.0
20/07:30am 12.6 13.2 11.8 95 0.4 CALM 0 0 0 0 1021.0 1020.9 0.0
20/07:00am 10.7 10.8 10.2 97 0.3 CALM 0 0 0 0 1020.6 1020.5 0.0
20/06:30am 9.8 9.7 9.3 97 0.2 CALM 0 0 0 0 1020.2 1020.1 0.0
20/06:00am 9.2 8.9 8.7 97 0.2 CALM 0 0 0 0 1019.8 1019.7 0.0
20/05:30am 9.1 8.8 8.6 97 0.2 CALM 0 0 0 0 1019.5 1019.4 0.0
20/05:00am 9.2 8.9 8.6 96 0.3 CALM 0 0 0 0 1019.1 1019.0 0.0
20/04:30am 9.5 9.3 8.9 96 0.3 CALM 0 0 0 0 1018.8 1018.7 0.0
20/04:00am 9.9 9.8 9.4 97 0.2 CALM 0 0 0 0 1018.7 1018.6 0.0
20/03:30am 10.0 9.9 9.5 97 0.3 CALM 0 0 0 0 1018.8 1018.7 0.0
20/03:00am 9.7 9.5 8.9 95 0.4 CALM 0 0 0 0 1018.8 1018.7 0.0
20/02:30am 9.9 9.7 9.1 95 0.4 CALM 0 0 0 0 1018.8 1018.7 0.0
20/02:00am 10.4 10.4 9.8 96 0.3 CALM 0 0 0 0 1018.9 1018.8 0.0
20/01:30am 11.1 11.3 10.6 97 0.3 CALM 0 0 0 0 1019.1 1019.0 0.0
20/01:00am 10.6 10.6 9.8 95 0.4 CALM 0 0 0 0 1019.1 1019.0 0.0
20/12:30am 11.1 11.2 10.0 93 0.6 CALM 0 0 0 0 1019.2 1019.1 0.0
20/12:00am 11.5 11.7 10.4 93 0.6 CALM 0 0 0 0 1019.6 1019.5 0.0
 
Date/Time
EST
Tmp

°C
App
Tmp
°C
Dew
Point
°C
Rel
Hum
%
Delta-T

°C
Wind Press
QNH
hPa
Press
MSL
hPa
Rain
since
9 am
mm
Dir
 
Spd
km/h
Gust
km/h
Spd
kts
Gust
kts
19/11:30pm 12.2 12.5 10.9 92 0.7 CALM 0 0 0 0 1019.9 1019.8 0.0
19/11:00pm 12.4 12.7 11.0 91 0.7 CALM 0 0 0 0 1020.0 1019.9 0.0
19/10:30pm 12.6 13.0 11.2 91 0.7 CALM 0 0 0 0 1019.9 1019.8 0.0
19/10:00pm 13.3 13.7 11.2 87 1.1 CALM 0 0 0 0 1019.8 1019.7 0.0
19/09:30pm 14.2 13.9 11.4 83 1.5 N 4 6 2 3 1019.7 1019.6 0.0
19/09:00pm 14.9 15.5 11.9 82 1.6 CALM 0 0 0 0 1019.7 1019.6 0.0
19/08:30pm 15.7 16.2 11.7 77 2.2 CALM 0 0 0 0 1019.8 1019.7 0.0
19/08:00pm 16.7 17.3 11.8 73 2.7 CALM 0 0 0 0 1019.5 1019.4 0.0
19/07:30pm 17.8 18.0 12.0 69 3.2 ESE 2 4 1 2 1019.2 1019.1 0.0
19/07:00pm 18.3 19.0 12.1 67 3.4 CALM 0 4 0 2 1018.7 1018.6 0.0
19/06:30pm 19.4 19.5 11.4 60 4.4 ENE 2 6 1 3 1018.1 1018.0 0.0
19/06:00pm 20.1 19.5 11.6 58 4.7 E 6 13 3 7 1017.6 1017.5 0.0
19/05:30pm 20.9 19.3 11.5 55 5.2 ENE 11 20 6 11 1016.9 1016.8 0.0
19/05:00pm 21.7 20.2 12.0 54 5.5 ENE 11 19 6 10 1016.6 1016.5 0.0
19/04:30pm 22.4 21.1 12.4 53 5.7 NE 11 24 6 13 1015.8 1015.7 0.0
19/04:00pm 24.1 22.1 11.4 45 7.2 NE 13 22 7 12 1015.5 1015.4 0.0
19/03:30pm 26.5 24.0 6.5 28 10.5 N 9 17 5 9 1015.2 1015.1 0.0
19/03:00pm 26.7 24.6 6.7 28 10.5 NE 7 13 4 7 1015.3 1015.2 0.0
19/02:30pm 25.9 23.6 5.5 27 10.5 N 7 19 4 10 1015.7 1015.6 0.0
19/02:00pm 26.1 23.0 7.2 30 10.0 NNW 13 22 7 12 1015.9 1015.8 0.0
19/01:30pm 25.9 22.4 7.0 30 10.0 NNW 15 26 8 14 1016.4 1016.3 0.0
19/01:00pm 25.6 23.4 6.3 29 10.0 N 7 13 4 7 1017.2 1017.1 0.0
19/12:30pm 25.2 22.7 6.4 30 9.8 N 9 19 5 10 1018.0 1017.9 0.0
19/12:00pm 24.8 22.9 9.1 37 8.5 NW 9 20 5 11 1018.7 1018.6 0.0
19/11:30am 23.8 21.5 7.4 35 8.6 NNW 9 17 5 9 1019.4 1019.3 0.0
19/11:00am 23.3 21.6 8.2 38 8.0 N 7 17 4 9 1019.9 1019.8 0.0
19/10:30am 22.8 21.2 8.9 41 7.4 NNW 7 15 4 8 1020.5 1020.4 0.0

Latest Capital City Observations: Canberra | Sydney | Melbourne | Brisbane | Adelaide | Perth | Hobart | Darwin

Other Formats:

Comma delimited format used in spreadsheet applications
http://www.bom.gov.au/fwo/IDQ60901/IDQ60901.94566.axf

JavaScript Object Notation format (JSON) in row-major order
http://www.bom.gov.au/fwo/IDQ60901/IDQ60901.94566.json